Time,TemperatureF,DewpointF,PressureIn,WindDirection,WindDirectionDegrees,WindSpeedMPH,WindSpeedGustMPH,Humidity,HourlyPrecipIn,Conditions,Clouds,dailyrainin,SoftwareType,DateUTC
2013-09-22 00:00:00,35.9,32.1,29.39,NNE,25,2.0,3.0,86,0.00,,,0.00,Wunderground v.1.15,2013-09-22 08:00:00,
2013-09-22 00:10:00,36.5,32.4,29.39,NNE,22,5.0,5.0,85,0.00,,,0.00,Wunderground v.1.15,2013-09-22 08:10:00,
2013-09-22 00:15:00,36.8,32.4,29.39,NE,37,3.0,5.0,84,0.00,,,0.00,Wunderground v.1.15,2013-09-22 08:15:00,
2013-09-22 00:20:00,37.0,32.6,29.39,North,9,2.0,5.0,84,0.00,,,0.00,Wunderground v.1.15,2013-09-22 08:20:00,
2013-09-22 00:30:00,36.2,32.4,29.39,NNW,327,3.0,3.0,86,0.00,,,0.00,Wunderground v.1.15,2013-09-22 08:30:00,
2013-09-22 00:40:00,36.0,32.8,29.39,NNW,331,2.0,2.0,88,0.00,,,0.00,Wunderground v.1.15,2013-09-22 08:40:00,
2013-09-22 00:50:00,36.3,33.1,29.40,NNW,334,1.0,3.0,88,0.00,,,0.00,Wunderground v.1.15,2013-09-22 08:50:00,
2013-09-22 01:00:00,36.3,33.1,29.40,NNW,341,3.0,5.0,88,0.00,,,0.00,Wunderground v.1.15,2013-09-22 09:00:00,
2013-09-22 01:10:00,35.8,32.3,29.40,NNE,16,4.0,4.0,87,0.00,,,0.00,Wunderground v.1.15,2013-09-22 09:10:00,
2013-09-22 01:20:00,35.3,31.8,29.40,NNE,33,4.0,7.0,87,0.00,,,0.00,Wunderground v.1.15,2013-09-22 09:20:00,
2013-09-22 01:30:00,35.5,32.0,29.40,North,2,6.0,6.0,87,0.00,,,0.00,Wunderground v.1.15,2013-09-22 09:30:00,
2013-09-22 01:35:00,35.8,32.0,29.40,NNW,338,6.0,6.0,86,0.00,,,0.00,Wunderground v.1.15,2013-09-22 09:35:00,
2013-09-22 01:45:00,36.9,31.9,29.41,North,5,9.0,11.0,82,0.00,,,0.00,Wunderground v.1.15,2013-09-22 09:45:00,
2013-09-22 01:50:00,36.9,31.6,29.41,NNE,23,8.0,8.0,81,0.00,,,0.00,Wunderground v.1.15,2013-09-22 09:50:00,
2013-09-22 02:00:00,36.5,31.2,29.40,ENE,61,6.0,6.0,81,0.00,,,0.00,Wunderground v.1.15,2013-09-22 10:00:00,
2013-09-22 02:10:00,35.6,31.2,29.40,ENE,67,5.0,6.0,84,0.00,,,0.00,Wunderground v.1.15,2013-09-22 10:10:00,
2013-09-22 02:20:00,35.8,31.1,29.41,NE,36,5.0,5.0,83,0.00,,,0.00,Wunderground v.1.15,2013-09-22 10:20:00,
2013-09-22 02:25:00,35.8,31.1,29.41,NE,50,5.0,5.0,83,0.00,,,0.00,Wunderground v.1.15,2013-09-22 10:25:00,
2013-09-22 02:35:00,35.0,30.9,29.41,NE,49,3.0,4.0,85,0.00,,,0.00,Wunderground v.1.15,2013-09-22 10:35:00,
2013-09-22 02:45:00,35.0,30.9,29.42,NNE,19,5.0,7.0,85,0.00,,,0.00,Wunderground v.1.15,2013-09-22 10:45:00,
2013-09-22 02:55:00,34.7,30.9,29.42,NNE,29,6.0,6.0,86,0.00,,,0.00,Wunderground v.1.15,2013-09-22 10:55:00,
2013-09-22 03:05:00,34.6,30.8,29.42,NNE,30,5.0,8.0,86,0.00,,,0.00,Wunderground v.1.15,2013-09-22 11:05:00,
2013-09-22 03:10:00,34.3,30.5,29.42,NE,35,4.0,5.0,86,0.00,,,0.00,Wunderground v.1.15,2013-09-22 11:10:00,
2013-09-22 03:20:00,33.7,30.2,29.42,NNE,19,5.0,6.0,87,0.00,,,0.00,Wunderground v.1.15,2013-09-22 11:20:00,
2013-09-22 03:30:00,33.7,30.0,29.43,NNE,19,5.0,5.0,86,0.00,,,0.00,Wunderground v.1.15,2013-09-22 11:30:00,
2013-09-22 03:40:00,33.2,29.8,29.43,North,358,4.0,4.0,87,0.00,,,0.00,Wunderground v.1.15,2013-09-22 11:40:00,
2013-09-22 03:45:00,32.8,29.6,29.43,North,359,3.0,4.0,88,0.00,,,0.00,Wunderground v.1.15,2013-09-22 11:45:00,
2013-09-22 03:55:00,32.7,29.5,29.43,NE,40,3.0,4.0,88,0.00,,,0.00,Wunderground v.1.15,2013-09-22 11:55:00,
2013-09-22 04:05:00,33.2,29.5,29.43,ENE,70,3.0,6.0,86,0.00,,,0.00,Wunderground v.1.15,2013-09-22 12:05:00,
2013-09-22 04:15:00,32.8,29.1,29.43,NNE,26,3.0,3.0,86,0.00,,,0.00,Wunderground v.1.15,2013-09-22 12:15:00,
2013-09-22 04:25:00,32.1,28.9,29.43,ENE,63,4.0,6.0,88,0.00,,,0.00,Wunderground v.1.15,2013-09-22 12:25:00,
2013-09-22 04:35:00,32.7,29.3,29.43,NNE,29,6.0,12.0,87,0.00,,,0.00,Wunderground v.1.15,2013-09-22 12:35:00,
2013-09-22 04:40:00,33.4,29.4,29.43,NNE,30,7.0,7.0,85,0.00,,,0.00,Wunderground v.1.15,2013-09-22 12:40:00,
2013-09-22 04:50:00,32.7,29.0,29.44,NNE,28,7.0,7.0,86,0.00,,,0.00,Wunderground v.1.15,2013-09-22 12:50:00,
2013-09-22 05:00:00,32.8,29.6,29.44,NE,47,5.0,5.0,88,0.00,,,0.00,Wunderground v.1.15,2013-09-22 13:00:00,
2013-09-22 05:10:00,33.7,29.7,29.44,NNE,28,6.0,6.0,85,0.00,,,0.00,Wunderground v.1.15,2013-09-22 13:10:00,
2013-09-22 05:20:00,33.2,29.2,29.44,NE,47,4.0,10.0,85,0.00,,,0.00,Wunderground v.1.15,2013-09-22 13:20:00,
2013-09-22 05:25:00,33.1,29.1,29.44,NE,39,4.0,10.0,85,0.00,,,0.00,Wunderground v.1.15,2013-09-22 13:25:00,
2013-09-22 05:35:00,33.7,29.4,29.44,ENE,68,7.0,9.0,84,0.00,,,0.00,Wunderground v.1.15,2013-09-22 13:35:00,
2013-09-22 05:45:00,32.8,28.8,29.44,NNE,18,2.0,11.0,85,0.00,,,0.00,Wunderground v.1.15,2013-09-22 13:45:00,
2013-09-22 05:55:00,33.7,29.1,29.44,NNE,23,7.0,7.0,83,0.00,,,0.00,Wunderground v.1.15,2013-09-22 13:55:00,
2013-09-22 06:00:00,33.5,28.9,29.45,NNE,26,5.0,6.0,83,0.00,,,0.00,Wunderground v.1.15,2013-09-22 14:00:00,
2013-09-22 06:10:00,33.7,29.4,29.45,North,351,6.0,6.0,84,0.00,,,0.00,Wunderground v.1.15,2013-09-22 14:10:00,
2013-09-22 06:15:00,33.4,29.1,29.45,NNW,347,4.0,6.0,84,0.00,,,0.00,Wunderground v.1.15,2013-09-22 14:15:00,
2013-09-22 06:20:00,33.1,28.8,29.45,North,356,2.0,4.0,84,0.00,,,0.00,Wunderground v.1.15,2013-09-22 14:20:00,
2013-09-22 06:30:00,32.9,28.3,29.45,NNE,26,3.0,3.0,83,0.00,,,0.00,Wunderground v.1.15,2013-09-22 14:30:00,
2013-09-22 06:40:00,32.7,28.4,29.45,NE,35,1.0,2.0,84,0.00,,,0.00,Wunderground v.1.15,2013-09-22 14:40:00,
2013-09-22 06:50:00,33.4,28.2,29.45,NE,56,3.0,3.0,81,0.00,,,0.00,Wunderground v.1.15,2013-09-22 14:50:00,
2013-09-22 07:00:00,33.1,27.9,29.45,NNE,29,3.0,7.0,81,0.00,,,0.00,Wunderground v.1.15,2013-09-22 15:00:00,
2013-09-22 07:10:00,32.8,27.6,29.45,NNE,23,6.0,6.0,81,0.00,,,0.00,Wunderground v.1.15,2013-09-22 15:10:00,
2013-09-22 07:20:00,33.1,27.0,29.45,NE,36,6.0,6.0,78,0.00,,,0.00,Wunderground v.1.15,2013-09-22 15:20:00,
2013-09-22 07:30:00,32.5,27.0,29.45,NNE,25,4.0,6.0,80,0.00,,,0.00,Wunderground v.1.15,2013-09-22 15:30:00,
2013-09-22 07:35:00,32.9,27.1,29.45,North,359,5.0,9.0,79,0.00,,,0.00,Wunderground v.1.15,2013-09-22 15:35:00,
2013-09-22 07:45:00,33.4,27.3,29.45,NNE,25,6.0,6.0,78,0.00,,,0.00,Wunderground v.1.15,2013-09-22 15:45:00,
2013-09-22 07:55:00,32.5,27.3,29.45,North,1,3.0,4.0,81,0.00,,,0.00,Wunderground v.1.15,2013-09-22 15:55:00,
2013-09-22 08:00:00,32.8,27.0,29.44,North,1,4.0,8.0,79,0.00,,,0.00,Wunderground v.1.15,2013-09-22 16:00:00,
2013-09-22 08:10:00,32.8,27.3,29.44,North,349,6.0,6.0,80,0.00,,,0.00,Wunderground v.1.15,2013-09-22 16:10:00,
2013-09-22 08:20:00,32.4,27.5,29.44,NNW,345,4.0,6.0,82,0.00,,,0.00,Wunderground v.1.15,2013-09-22 16:20:00,
2013-09-22 08:30:00,32.5,27.0,29.44,NNW,348,5.0,5.0,80,0.00,,,0.00,Wunderground v.1.15,2013-09-22 16:30:00,
2013-09-22 08:35:00,32.5,26.7,29.44,NNW,348,3.0,5.0,79,0.00,,,0.00,Wunderground v.1.15,2013-09-22 16:35:00,
2013-09-22 08:45:00,32.1,26.6,29.44,North,2,3.0,5.0,80,0.00,,,0.00,Wunderground v.1.15,2013-09-22 16:45:00,
2013-09-22 08:55:00,32.1,26.6,29.44,North,5,3.0,5.0,80,0.00,,,0.00,Wunderground v.1.15,2013-09-22 16:55:00,
2013-09-22 09:00:00,32.4,26.6,29.44,NNE,15,5.0,5.0,79,0.00,,,0.00,Wunderground v.1.15,2013-09-22 17:00:00,
2013-09-22 09:06:00,32.5,26.7,29.44,NNE,28,5.0,5.0,79,0.00,,,0.00,Wunderground v.1.15,2013-09-22 17:06:00,
2013-09-22 09:15:00,32.7,26.9,29.44,NNE,15,4.0,4.0,79,0.00,,,0.00,Wunderground v.1.15,2013-09-22 17:15:00,
2013-09-22 09:20:00,32.8,27.0,29.44,NNE,20,4.0,4.0,79,0.00,,,0.00,Wunderground v.1.15,2013-09-22 17:20:00,
2013-09-22 09:25:00,32.8,26.7,29.44,NNE,20,3.0,6.0,78,0.00,,,0.00,Wunderground v.1.15,2013-09-22 17:25:00,
2013-09-22 09:35:00,33.1,27.0,29.45,NNE,32,6.0,6.0,78,0.00,,,0.00,Wunderground v.1.15,2013-09-22 17:35:00,
2013-09-22 09:45:00,33.4,27.3,29.45,NNE,20,6.0,8.0,78,0.00,,,0.00,Wunderground v.1.15,2013-09-22 17:45:00,
2013-09-22 09:50:00,33.4,27.3,29.45,NNE,23,7.0,7.0,78,0.00,,,0.00,Wunderground v.1.15,2013-09-22 17:50:00,
2013-09-22 10:00:00,33.2,27.1,29.45,NNE,23,6.0,6.0,78,0.00,,,0.00,Wunderground v.1.15,2013-09-22 18:00:00,
2013-09-22 10:10:00,34.0,27.2,29.45,NE,37,4.0,6.0,76,0.00,,,0.00,Wunderground v.1.15,2013-09-22 18:10:00,
2013-09-22 10:20:00,34.3,27.2,29.45,NNE,26,6.0,7.0,75,0.00,,,0.00,Wunderground v.1.15,2013-09-22 18:20:00,
2013-09-22 10:30:00,34.6,27.2,29.45,NE,54,4.0,5.0,74,0.00,,,0.00,Wunderground v.1.15,2013-09-22 18:30:00,
2013-09-22 10:40:00,34.9,27.1,29.45,ENE,77,5.0,5.0,73,0.00,,,0.00,Wunderground v.1.15,2013-09-22 18:40:00,
2013-09-22 10:45:00,34.9,27.1,29.45,ENE,63,5.0,6.0,73,0.00,,,0.00,Wunderground v.1.15,2013-09-22 18:45:00,
2013-09-22 10:55:00,34.9,27.8,29.45,NNE,32,5.0,5.0,75,0.00,,,0.00,Wunderground v.1.15,2013-09-22 18:55:00,
2013-09-22 11:00:00,34.9,27.5,29.46,ENE,68,4.0,4.0,74,0.00,,,0.00,Wunderground v.1.15,2013-09-22 19:00:00,
2013-09-22 11:10:00,35.2,27.7,29.46,ENE,66,4.0,5.0,74,0.00,,,0.00,Wunderground v.1.15,2013-09-22 19:10:00,
2013-09-22 11:20:00,35.3,28.2,29.46,NE,42,3.0,7.0,75,0.00,,,0.00,Wunderground v.1.15,2013-09-22 19:20:00,
2013-09-22 11:30:00,35.3,28.2,29.45,NNE,23,6.0,7.0,75,0.00,,,0.00,Wunderground v.1.15,2013-09-22 19:30:00,
2013-09-22 11:40:00,35.5,27.7,29.45,NNE,13,7.0,10.0,73,0.00,,,0.00,Wunderground v.1.15,2013-09-22 19:40:00,
2013-09-22 11:50:00,35.6,27.8,29.46,NE,36,7.0,10.0,73,0.00,,,0.00,Wunderground v.1.15,2013-09-22 19:50:00,
2013-09-22 12:00:00,35.8,27.7,29.46,NNE,26,8.0,8.0,72,0.00,,,0.00,Wunderground v.1.15,2013-09-22 20:00:00,
2013-09-22 12:05:00,36.0,28.2,29.46,NE,39,8.0,8.0,73,0.00,,,0.00,Wunderground v.1.15,2013-09-22 20:05:00,
2013-09-22 12:15:00,35.9,27.7,29.46,NNE,20,6.0,8.0,72,0.00,,,0.00,Wunderground v.1.15,2013-09-22 20:15:00,
2013-09-22 12:25:00,36.2,28.4,29.46,NNE,13,6.0,9.0,73,0.00,,,0.00,Wunderground v.1.15,2013-09-22 20:25:00,
2013-09-22 12:30:00,36.5,28.7,29.45,NE,35,7.0,7.0,73,0.00,,,0.00,Wunderground v.1.15,2013-09-22 20:30:00,
2013-09-22 12:40:00,36.5,28.0,29.45,NNE,20,8.0,11.0,71,0.00,,,0.00,Wunderground v.1.15,2013-09-22 20:40:00,
2013-09-22 12:50:00,36.8,28.6,29.45,NE,56,5.0,7.0,72,0.00,,,0.00,Wunderground v.1.15,2013-09-22 20:50:00,
2013-09-22 12:55:00,36.9,28.7,29.45,NNE,33,5.0,7.0,72,0.00,,,0.00,Wunderground v.1.15,2013-09-22 20:55:00,
2013-09-22 13:05:00,37.5,28.2,29.45,ENE,63,7.0,11.0,69,0.00,,,0.00,Wunderground v.1.15,2013-09-22 21:05:00,
2013-09-22 13:16:00,37.3,27.7,29.45,NE,40,6.0,7.0,68,0.00,,,0.00,Wunderground v.1.15,2013-09-22 21:16:00,
2013-09-22 13:25:00,37.3,27.3,29.45,NE,54,6.0,9.0,67,0.00,,,0.00,Wunderground v.1.15,2013-09-22 21:25:00,
2013-09-22 13:30:00,37.3,27.0,29.45,ENE,68,6.0,6.0,66,0.00,,,0.00,Wunderground v.1.15,2013-09-22 21:30:00,
2013-09-22 13:40:00,37.6,26.9,29.45,ENE,67,5.0,5.0,65,0.00,,,0.00,Wunderground v.1.15,2013-09-22 21:40:00,
2013-09-22 13:50:00,37.8,26.7,29.46,NNE,28,5.0,5.0,64,0.00,,,0.00,Wunderground v.1.15,2013-09-22 21:50:00,
2013-09-22 14:00:00,37.8,26.7,29.46,NNE,32,6.0,6.0,64,0.00,,,0.00,Wunderground v.1.15,2013-09-22 22:00:00,
2013-09-22 14:10:00,37.8,26.7,29.46,NNE,32,5.0,7.0,64,0.00,,,0.00,Wunderground v.1.15,2013-09-22 22:10:00,
2013-09-22 14:20:00,37.8,26.7,29.46,NE,37,6.0,8.0,64,0.00,,,0.00,Wunderground v.1.15,2013-09-22 22:20:00,
2013-09-22 14:25:00,37.6,26.9,29.46,ENE,74,7.0,8.0,65,0.00,,,0.00,Wunderground v.1.15,2013-09-22 22:25:00,
2013-09-22 14:40:00,37.5,26.4,29.47,NNE,28,6.0,11.0,64,0.00,,,0.00,Wunderground v.1.15,2013-09-22 22:40:00,
2013-09-22 14:45:00,37.5,26.0,29.47,NE,44,7.0,11.0,63,0.00,,,0.00,Wunderground v.1.15,2013-09-22 22:45:00,
2013-09-22 14:55:00,37.6,25.4,29.47,NNE,30,5.0,6.0,61,0.00,,,0.00,Wunderground v.1.15,2013-09-22 22:55:00,
2013-09-22 15:00:00,37.6,25.7,29.47,NNE,18,6.0,6.0,62,0.00,,,0.00,Wunderground v.1.15,2013-09-22 23:00:00,
2013-09-22 15:10:00,37.8,25.5,29.47,ENE,61,5.0,6.0,61,0.00,,,0.00,Wunderground v.1.15,2013-09-22 23:10:00,
2013-09-22 15:20:00,37.8,24.7,29.47,NNE,20,5.0,8.0,59,0.00,,,0.00,Wunderground v.1.15,2013-09-22 23:20:00,
2013-09-22 15:25:00,37.8,24.7,29.47,NNE,25,9.0,9.0,59,0.00,,,0.00,Wunderground v.1.15,2013-09-22 23:25:00,
2013-09-22 15:30:00,37.9,24.4,29.47,NNE,18,9.0,10.0,58,0.00,,,0.00,Wunderground v.1.15,2013-09-22 23:30:00,
2013-09-22 15:40:00,37.8,25.1,29.47,NNE,25,9.0,10.0,60,0.00,,,0.00,Wunderground v.1.15,2013-09-22 23:40:00,
2013-09-22 15:50:00,37.8,24.3,29.48,NE,49,9.0,9.0,58,0.00,,,0.00,Wunderground v.1.15,2013-09-22 23:50:00,
2013-09-22 16:00:00,38.0,25.3,29.48,NNE,29,5.0,5.0,60,0.00,,,0.00,Wunderground v.1.15,2013-09-23 00:00:00,
2013-09-22 16:10:00,37.9,24.8,29.48,NNE,19,8.0,8.0,59,0.00,,,0.00,Wunderground v.1.15,2013-09-23 00:10:00,
2013-09-22 16:20:00,38.2,25.9,29.48,NE,54,7.0,7.0,61,0.00,,,0.00,Wunderground v.1.15,2013-09-23 00:20:00,
2013-09-22 16:30:00,38.5,25.4,29.48,NNE,28,4.0,6.0,59,0.00,,,0.00,Wunderground v.1.15,2013-09-23 00:30:00,
2013-09-22 16:40:00,38.5,25.0,29.48,NNE,25,6.0,8.0,58,0.00,,,0.00,Wunderground v.1.15,2013-09-23 00:40:00,
2013-09-22 16:45:00,38.6,25.1,29.48,NNE,23,8.0,11.0,58,0.00,,,0.00,Wunderground v.1.15,2013-09-23 00:45:00,
2013-09-22 16:50:00,38.9,24.9,29.48,NNE,28,7.0,7.0,57,0.00,,,0.00,Wunderground v.1.15,2013-09-23 00:50:00,
2013-09-22 17:00:00,38.8,24.9,29.48,NNE,22,9.0,9.0,57,0.00,,,0.00,Wunderground v.1.15,2013-09-23 01:00:00,
2013-09-22 17:05:00,39.1,25.1,29.48,NNE,29,9.0,10.0,57,0.00,,,0.00,Wunderground v.1.15,2013-09-23 01:05:00,
2013-09-22 17:15:00,38.6,25.1,29.48,NNE,13,10.0,10.0,58,0.00,,,0.00,Wunderground v.1.15,2013-09-23 01:15:00,
2013-09-22 17:20:00,38.8,25.7,29.48,NNE,29,9.0,10.0,59,0.00,,,0.00,Wunderground v.1.15,2013-09-23 01:20:00,
2013-09-22 17:30:00,38.2,27.8,29.48,North,356,13.0,16.0,66,0.00,,,0.00,Wunderground v.1.15,2013-09-23 01:30:00,
2013-09-22 17:40:00,37.9,27.5,29.48,NNE,12,12.0,13.0,66,0.00,,,0.00,Wunderground v.1.15,2013-09-23 01:40:00,
2013-09-22 17:50:00,37.9,27.2,29.48,North,6,10.0,12.0,65,0.00,,,0.00,Wunderground v.1.15,2013-09-23 01:50:00,
2013-09-22 17:55:00,38.3,26.8,29.48,NNE,16,10.0,13.0,63,0.00,,,0.00,Wunderground v.1.15,2013-09-23 01:55:00,
2013-09-22 18:05:00,38.8,27.7,29.48,North,5,9.0,10.0,64,0.00,,,0.00,Wunderground v.1.15,2013-09-23 02:05:00,
2013-09-22 18:15:00,38.6,28.2,29.48,North,352,13.0,18.0,66,0.00,,,0.00,Wunderground v.1.15,2013-09-23 02:15:00,
2013-09-22 18:25:00,38.0,28.0,29.48,North,4,14.0,14.0,67,0.00,,,0.00,Wunderground v.1.15,2013-09-23 02:25:00,
2013-09-22 18:35:00,38.0,28.4,29.48,NNE,30,12.0,13.0,68,0.00,,,0.00,Wunderground v.1.15,2013-09-23 02:35:00,
2013-09-22 18:45:00,38.3,28.3,29.49,NNE,25,10.0,12.0,67,0.00,,,0.00,Wunderground v.1.15,2013-09-23 02:45:00,
2013-09-22 18:55:00,37.5,27.9,29.49,NNE,12,9.0,10.0,68,0.00,,,0.00,Wunderground v.1.15,2013-09-23 02:55:00,
2013-09-22 19:00:00,37.9,27.9,29.49,NE,35,10.0,12.0,67,0.00,,,0.00,Wunderground v.1.15,2013-09-23 03:00:00,
2013-09-22 19:10:00,38.0,27.6,29.49,NNE,16,9.0,9.0,66,0.00,,,0.00,Wunderground v.1.15,2013-09-23 03:10:00,
2013-09-22 19:20:00,37.3,27.3,29.49,NNE,18,8.0,8.0,67,0.00,,,0.00,Wunderground v.1.15,2013-09-23 03:20:00,
2013-09-22 19:25:00,37.5,27.5,29.49,NNE,22,8.0,11.0,67,0.00,,,0.00,Wunderground v.1.15,2013-09-23 03:25:00,
2013-09-22 19:35:00,37.6,27.6,29.49,NNE,15,10.0,11.0,67,0.00,,,0.00,Wunderground v.1.15,2013-09-23 03:35:00,
2013-09-22 19:45:00,37.6,28.3,29.49,NNE,20,11.0,11.0,69,0.00,,,0.00,Wunderground v.1.15,2013-09-23 03:45:00,
2013-09-22 19:55:00,37.8,27.5,29.49,NNE,23,11.0,11.0,66,0.00,,,0.00,Wunderground v.1.15,2013-09-23 03:55:00,
2013-09-22 20:05:00,37.6,26.9,29.49,NNE,28,9.0,10.0,65,0.00,,,0.00,Wunderground v.1.15,2013-09-23 04:05:00,
2013-09-22 20:10:00,37.2,27.2,29.49,NNE,16,8.0,8.0,67,0.00,,,0.00,Wunderground v.1.15,2013-09-23 04:10:00,
2013-09-22 20:15:00,36.8,27.2,29.50,North,4,6.0,8.0,68,0.00,,,0.00,Wunderground v.1.15,2013-09-23 04:15:00,
2013-09-22 20:25:00,35.9,26.7,29.50,NNE,23,5.0,7.0,69,0.00,,,0.00,Wunderground v.1.15,2013-09-23 04:25:00,
2013-09-22 20:35:00,35.0,26.5,29.50,NNE,23,2.0,3.0,71,0.00,,,0.00,Wunderground v.1.15,2013-09-23 04:35:00,
2013-09-22 20:40:00,34.6,26.5,29.50,NNE,23,0.0,0.0,72,0.00,,,0.00,Wunderground v.1.15,2013-09-23 04:40:00,
2013-09-22 20:45:00,34.4,26.3,29.51,NNE,13,0.0,2.0,72,0.00,,,0.00,Wunderground v.1.15,2013-09-23 04:45:00,
2013-09-22 20:55:00,33.7,26.3,29.51,NNE,13,1.0,2.0,74,0.00,,,0.00,Wunderground v.1.15,2013-09-23 04:55:00,
2013-09-22 21:00:00,33.4,26.3,29.51,North,358,3.0,4.0,75,0.00,,,0.00,Wunderground v.1.15,2013-09-23 05:00:00,
2013-09-22 21:05:00,33.1,26.0,29.51,North,355,6.0,9.0,75,0.00,,,0.00,Wunderground v.1.15,2013-09-23 05:05:00,
2013-09-22 21:10:00,32.7,26.0,29.51,North,351,7.0,7.0,76,0.00,,,0.00,Wunderground v.1.15,2013-09-23 05:10:00,
2013-09-22 21:20:00,32.5,25.8,29.51,NNE,16,6.0,6.0,76,0.00,,,0.00,Wunderground v.1.15,2013-09-23 05:20:00,
2013-09-22 21:30:00,31.8,25.1,29.51,ENE,61,2.0,2.0,76,0.00,,,0.00,Wunderground v.1.15,2013-09-23 05:30:00,
2013-09-22 21:40:00,30.7,24.7,29.51,ENE,61,1.0,4.0,78,0.00,,,0.00,Wunderground v.1.15,2013-09-23 05:40:00,
2013-09-22 21:45:00,30.7,24.7,29.51,ENE,66,1.0,4.0,78,0.00,,,0.00,Wunderground v.1.15,2013-09-23 05:45:00,
2013-09-22 21:55:00,30.7,25.0,29.51,ENE,59,2.0,3.0,79,0.00,,,0.00,Wunderground v.1.15,2013-09-23 05:55:00,
2013-09-22 22:05:00,30.6,24.9,29.52,NE,50,1.0,5.0,79,0.00,,,0.00,Wunderground v.1.15,2013-09-23 06:05:00,
2013-09-22 22:15:00,32.1,25.4,29.52,NNE,13,3.0,4.0,76,0.00,,,0.00,Wunderground v.1.15,2013-09-23 06:15:00,
2013-09-22 22:25:00,32.8,25.1,29.52,NE,50,4.0,10.0,73,0.00,,,0.00,Wunderground v.1.15,2013-09-23 06:25:00,
2013-09-22 22:41:00,30.1,24.1,29.52,NE,52,1.0,1.0,78,0.00,,,0.00,Wunderground v.1.15,2013-09-23 06:41:00,
2013-09-22 22:50:00,29.5,24.7,29.52,NE,50,0.0,0.0,82,0.00,,,0.00,Wunderground v.1.15,2013-09-23 06:50:00,
2013-09-22 22:55:00,29.5,24.7,29.52,NE,50,0.0,0.0,82,0.00,,,0.00,Wunderground v.1.15,2013-09-23 06:55:00,
2013-09-22 23:00:00,29.4,24.3,29.52,NE,50,0.0,1.0,81,0.00,,,0.00,Wunderground v.1.15,2013-09-23 07:00:00,
2013-09-22 23:10:00,29.3,24.2,29.52,NE,50,1.0,2.0,81,0.00,,,0.00,Wunderground v.1.15,2013-09-23 07:10:00,
2013-09-22 23:20:00,29.0,23.9,29.53,NNE,16,2.0,2.0,81,0.00,,,0.00,Wunderground v.1.15,2013-09-23 07:20:00,
2013-09-22 23:30:00,28.2,24.0,29.53,NNE,18,0.0,0.0,84,0.00,,,0.00,Wunderground v.1.15,2013-09-23 07:30:00,
2013-09-22 23:35:00,28.1,24.2,29.53,NNE,18,0.0,0.0,85,0.00,,,0.00,Wunderground v.1.15,2013-09-23 07:35:00,
2013-09-22 23:45:00,27.0,23.4,29.53,NNE,19,1.0,1.0,86,0.00,,,0.00,Wunderground v.1.15,2013-09-23 07:45:00,
2013-09-22 23:55:00,26.9,23.0,29.53,NNE,19,0.0,0.0,85,0.00,,,0.00,Wunderground v.1.15,2013-09-23 07:55:00,